Kurchatov, Russia
Current Conditions -  °F | °C
As of 11:00 PM on Sunday 23 Nov 2014 (Local Time) from UUOB Reporting Station
Haze Haze  
Wind Chill: 13°   Ceiling: 7000
Heat Index: 21°   Visibility: 2.5mi
Dew Point: 19°   Wind: 7mph
Humidity: 93%   Direction: 10°N
Pressure: 30.48"   Gusts: NA
Location:  51.59°N, 35.65°E
Report Text: UUOB 232000Z 01003MPS 4000 BR BKN070 M06/M07 Q1032 11090060NOSIG
Loading
Personal Weather Stations






























Interactive Weather Map New forecast layout! Learn more

10-Day Weather Forecast

Advertisements
Track Severe Weather on mobile